sensor_id;sensor_type;location;lat;lon;timestamp;temperature;humidity
19646;DHT22;9971;52.446;13.452;2023-01-30T00:04:52;5.40;99.90
19646;DHT22;9971;52.446;13.452;2023-01-30T00:09:54;4.80;99.90
19646;DHT22;9971;52.446;13.452;2023-01-30T00:14:57;4.50;99.90
19646;DHT22;9971;52.446;13.452;2023-01-30T00:19:59;4.50;99.90
19646;DHT22;9971;52.446;13.452;2023-01-30T00:25:02;4.40;99.90
19646;DHT22;9971;52.446;13.452;2023-01-30T00:30:05;4.30;99.90
19646;DHT22;9971;52.446;13.452;2023-01-30T00:35:07;4.30;99.90
19646;DHT22;9971;52.446;13.452;2023-01-30T00:40:11;4.30;99.90
19646;DHT22;9971;52.446;13.452;2023-01-30T00:45:16;4.80;99.90
19646;DHT22;9971;52.446;13.452;2023-01-30T00:50:24;5.50;99.90
19646;DHT22;9971;52.446;13.452;2023-01-30T00:55:26;6.20;99.90
19646;DHT22;9971;52.446;13.452;2023-01-30T01:00:28;6.70;99.90
19646;DHT22;9971;52.446;13.452;2023-01-30T01:05:31;7.20;99.90
19646;DHT22;9971;52.446;13.452;2023-01-30T01:10:33;7.50;99.90
19646;DHT22;9971;52.446;13.452;2023-01-30T01:15:35;7.90;99.90
19646;DHT22;9971;52.446;13.452;2023-01-30T01:20:38;8.20;99.90
19646;DHT22;9971;52.446;13.452;2023-01-30T01:25:40;8.30;99.90
19646;DHT22;9971;52.446;13.452;2023-01-30T01:30:43;8.60;99.90
19646;DHT22;9971;52.446;13.452;2023-01-30T01:35:45;8.70;99.90
19646;DHT22;9971;52.446;13.452;2023-01-30T01:40:48;8.90;99.90
19646;DHT22;9971;52.446;13.452;2023-01-30T01:46:03;9.10;99.90
19646;DHT22;9971;52.446;13.452;2023-01-30T01:51:05;9.30;99.90
19646;DHT22;9971;52.446;13.452;2023-01-30T01:56:06;9.40;99.90
19646;DHT22;9971;52.446;13.452;2023-01-30T02:01:09;9.40;99.90
19646;DHT22;9971;52.446;13.452;2023-01-30T02:06:11;9.50;99.90
19646;DHT22;9971;52.446;13.452;2023-01-30T02:11:14;9.60;99.90
19646;DHT22;9971;52.446;13.452;2023-01-30T02:16:15;9.50;99.90
19646;DHT22;9971;52.446;13.452;2023-01-30T02:21:46;9.50;99.90
19646;DHT22;9971;52.446;13.452;2023-01-30T02:27:14;9.60;99.90
19646;DHT22;9971;52.446;13.452;2023-01-30T02:32:05;9.70;99.90
19646;DHT22;9971;52.446;13.452;2023-01-30T02:37:45;9.80;99.90
19646;DHT22;9971;52.446;13.452;2023-01-30T02:42:44;9.80;99.90
19646;DHT22;9971;52.446;13.452;2023-01-30T02:47:52;9.80;99.90
19646;DHT22;9971;52.446;13.452;2023-01-30T02:52:53;9.70;99.90
19646;DHT22;9971;52.446;13.452;2023-01-30T02:57:56;9.60;99.90
19646;DHT22;9971;52.446;13.452;2023-01-30T03:03:06;9.60;99.90
19646;DHT22;9971;52.446;13.452;2023-01-30T03:08:16;9.60;99.90
19646;DHT22;9971;52.446;13.452;2023-01-30T03:13:18;9.60;99.90
19646;DHT22;9971;52.446;13.452;2023-01-30T03:18:18;9.70;99.90
19646;DHT22;9971;52.446;13.452;2023-01-30T03:23:20;9.70;99.90
19646;DHT22;9971;52.446;13.452;2023-01-30T03:28:22;9.70;99.90
19646;DHT22;9971;52.446;13.452;2023-01-30T03:33:24;9.80;99.90
19646;DHT22;9971;52.446;13.452;2023-01-30T03:38:26;9.80;99.90
19646;DHT22;9971;52.446;13.452;2023-01-30T03:43:29;9.90;99.90
19646;DHT22;9971;52.446;13.452;2023-01-30T03:48:31;9.90;99.90
19646;DHT22;9971;52.446;13.452;2023-01-30T03:53:34;10.00;99.90
19646;DHT22;9971;52.446;13.452;2023-01-30T03:58:36;10.10;99.90
19646;DHT22;9971;52.446;13.452;2023-01-30T04:03:39;10.20;99.90
19646;DHT22;9971;52.446;13.452;2023-01-30T04:08:41;10.30;99.90
19646;DHT22;9971;52.446;13.452;2023-01-30T04:13:44;10.20;99.90
19646;DHT22;9971;52.446;13.452;2023-01-30T04:18:46;10.30;99.90
19646;DHT22;9971;52.446;13.452;2023-01-30T04:23:48;10.30;99.90
19646;DHT22;9971;52.446;13.452;2023-01-30T04:28:51;10.20;99.90
19646;DHT22;9971;52.446;13.452;2023-01-30T04:33:53;10.30;99.90
19646;DHT22;9971;52.446;13.452;2023-01-30T04:38:56;10.20;99.90
19646;DHT22;9971;52.446;13.452;2023-01-30T04:43:58;10.30;99.90
19646;DHT22;9971;52.446;13.452;2023-01-30T04:49:01;10.30;99.90
19646;DHT22;9971;52.446;13.452;2023-01-30T04:54:03;10.30;99.90
19646;DHT22;9971;52.446;13.452;2023-01-30T04:59:06;10.30;99.90
19646;DHT22;9971;52.446;13.452;2023-01-30T05:04:08;10.30;99.90
19646;DHT22;9971;52.446;13.452;2023-01-30T05:09:11;10.30;99.90
19646;DHT22;9971;52.446;13.452;2023-01-30T05:14:13;10.30;99.90
19646;DHT22;9971;52.446;13.452;2023-01-30T05:19:16;10.30;99.90
19646;DHT22;9971;52.446;13.452;2023-01-30T05:24:18;10.20;99.90
19646;DHT22;9971;52.446;13.452;2023-01-30T05:29:21;10.30;99.90
19646;DHT22;9971;52.446;13.452;2023-01-30T05:34:23;10.30;99.90
19646;DHT22;9971;52.446;13.452;2023-01-30T05:39:26;10.40;99.90
19646;DHT22;9971;52.446;13.452;2023-01-30T05:44:28;10.50;99.90
19646;DHT22;9971;52.446;13.452;2023-01-30T05:49:30;10.50;99.90
19646;DHT22;9971;52.446;13.452;2023-01-30T05:54:33;10.60;99.90
19646;DHT22;9971;52.446;13.452;2023-01-30T05:59:35;10.60;99.90
19646;DHT22;9971;52.446;13.452;2023-01-30T06:04:38;10.70;99.90
19646;DHT22;9971;52.446;13.452;2023-01-30T06:09:41;10.80;99.90
19646;DHT22;9971;52.446;13.452;2023-01-30T06:14:43;10.80;99.90
19646;DHT22;9971;52.446;13.452;2023-01-30T06:19:46;10.90;99.90
19646;DHT22;9971;52.446;13.452;2023-01-30T06:24:48;10.90;99.90
19646;DHT22;9971;52.446;13.452;2023-01-30T06:29:51;11.00;99.90
19646;DHT22;9971;52.446;13.452;2023-01-30T06:34:53;11.00;99.90
19646;DHT22;9971;52.446;13.452;2023-01-30T06:39:56;11.00;99.90
19646;DHT22;9971;52.446;13.452;2023-01-30T06:44:58;11.00;99.90
19646;DHT22;9971;52.446;13.452;2023-01-30T06:50:01;11.00;99.90
19646;DHT22;9971;52.446;13.452;2023-01-30T06:55:03;11.10;99.90
19646;DHT22;9971;52.446;13.452;2023-01-30T07:00:07;11.20;99.90
19646;DHT22;9971;52.446;13.452;2023-01-30T07:05:09;11.20;99.90
19646;DHT22;9971;52.446;13.452;2023-01-30T07:10:10;11.20;99.90
19646;DHT22;9971;52.446;13.452;2023-01-30T07:15:13;11.30;99.90
19646;DHT22;9971;52.446;13.452;2023-01-30T07:20:15;11.30;99.90
19646;DHT22;9971;52.446;13.452;2023-01-30T07:25:19;11.30;99.90
19646;DHT22;9971;52.446;13.452;2023-01-30T07:30:20;11.40;99.90
19646;DHT22;9971;52.446;13.452;2023-01-30T07:35:23;11.40;99.90
19646;DHT22;9971;52.446;13.452;2023-01-30T07:40:24;11.40;99.90
19646;DHT22;9971;52.446;13.452;2023-01-30T07:45:28;11.50;99.90
19646;DHT22;9971;52.446;13.452;2023-01-30T07:50:29;11.50;99.90
19646;DHT22;9971;52.446;13.452;2023-01-30T07:55:32;11.50;99.90
19646;DHT22;9971;52.446;13.452;2023-01-30T08:00:34;11.50;99.90
19646;DHT22;9971;52.446;13.452;2023-01-30T08:05:36;11.60;99.90
19646;DHT22;9971;52.446;13.452;2023-01-30T08:15:54;11.70;99.90
19646;DHT22;9971;52.446;13.452;2023-01-30T09:00:11;12.00;99.90
19646;DHT22;9971;52.446;13.452;2023-01-30T09:05:14;7.10;99.90
19646;DHT22;9971;52.446;13.452;2023-01-30T09:10:16;7.10;99.90
19646;DHT22;9971;52.446;13.452;2023-01-30T09:15:19;7.20;99.90
19646;DHT22;9971;52.446;13.452;2023-01-30T09:20:21;7.30;99.90
19646;DHT22;9971;52.446;13.452;2023-01-30T09:25:24;7.40;99.90
19646;DHT22;9971;52.446;13.452;2023-01-30T09:30:26;7.40;99.90
19646;DHT22;9971;52.446;13.452;2023-01-30T09:35:28;7.50;99.90
19646;DHT22;9971;52.446;13.452;2023-01-30T09:40:31;7.50;99.90
19646;DHT22;9971;52.446;13.452;2023-01-30T09:46:05;7.60;99.90
19646;DHT22;9971;52.446;13.452;2023-01-30T09:51:24;7.60;99.90
19646;DHT22;9971;52.446;13.452;2023-01-30T09:56:22;7.70;99.90
19646;DHT22;9971;52.446;13.452;2023-01-30T10:06:48;7.90;99.90
19646;DHT22;9971;52.446;13.452;2023-01-30T10:22:37;8.00;99.90
19646;DHT22;9971;52.446;13.452;2023-01-30T10:27:35;8.00;99.90
19646;DHT22;9971;52.446;13.452;2023-01-30T10:32:39;8.00;99.90
19646;DHT22;9971;52.446;13.452;2023-01-30T10:37:50;8.20;99.90
19646;DHT22;9971;52.446;13.452;2023-01-30T10:43:11;8.20;99.90
19646;DHT22;9971;52.446;13.452;2023-01-30T10:48:32;8.30;99.90
19646;DHT22;9971;52.446;13.452;2023-01-30T10:53:36;8.40;99.90
19646;DHT22;9971;52.446;13.452;2023-01-30T11:04:19;8.40;99.90
19646;DHT22;9971;52.446;13.452;2023-01-30T11:09:16;8.30;99.90
19646;DHT22;9971;52.446;13.452;2023-01-30T11:14:21;8.40;99.90
19646;DHT22;9971;52.446;13.452;2023-01-30T11:19:29;8.40;99.90
19646;DHT22;9971;52.446;13.452;2023-01-30T11:35:29;8.40;99.90
19646;DHT22;9971;52.446;13.452;2023-01-30T12:02:36;8.70;99.90
19646;DHT22;9971;52.446;13.452;2023-01-30T12:07:39;8.80;99.90
19646;DHT22;9971;52.446;13.452;2023-01-30T12:12:43;8.80;99.90
19646;DHT22;9971;52.446;13.452;2023-01-30T12:17:53;8.80;99.90
19646;DHT22;9971;52.446;13.452;2023-01-30T12:23:11;8.70;99.90
19646;DHT22;9971;52.446;13.452;2023-01-30T12:33:35;7.80;99.90
19646;DHT22;9971;52.446;13.452;2023-01-30T12:38:52;8.00;99.90
19646;DHT22;9971;52.446;13.452;2023-01-30T12:44:00;8.30;99.90
19646;DHT22;9971;52.446;13.452;2023-01-30T12:49:04;8.40;99.90
19646;DHT22;9971;52.446;13.452;2023-01-30T12:54:22;8.40;99.90
19646;DHT22;9971;52.446;13.452;2023-01-30T12:59:27;8.30;99.90
19646;DHT22;9971;52.446;13.452;2023-01-30T13:04:42;8.40;99.90
19646;DHT22;9971;52.446;13.452;2023-01-30T13:09:52;8.40;99.90
19646;DHT22;9971;52.446;13.452;2023-01-30T13:20:07;8.50;99.90
19646;DHT22;9971;52.446;13.452;2023-01-30T13:25:14;8.50;99.90
19646;DHT22;9971;52.446;13.452;2023-01-30T13:30:14;8.50;99.90
19646;DHT22;9971;52.446;13.452;2023-01-30T13:35:21;8.50;99.90
19646;DHT22;9971;52.446;13.452;2023-01-30T13:40:22;8.50;99.90
19646;DHT22;9971;52.446;13.452;2023-01-30T13:45:28;8.50;99.90
19646;DHT22;9971;52.446;13.452;2023-01-30T13:50:35;8.50;99.90
19646;DHT22;9971;52.446;13.452;2023-01-30T13:55:38;8.50;99.90
19646;DHT22;9971;52.446;13.452;2023-01-30T14:00:37;8.40;99.90
19646;DHT22;9971;52.446;13.452;2023-01-30T14:06:08;8.00;99.90
19646;DHT22;9971;52.446;13.452;2023-01-30T14:11:29;7.90;99.90
19646;DHT22;9971;52.446;13.452;2023-01-30T14:16:42;7.80;99.90
19646;DHT22;9971;52.446;13.452;2023-01-30T14:21:52;7.80;99.90
19646;DHT22;9971;52.446;13.452;2023-01-30T14:27:02;7.60;99.90
19646;DHT22;9971;52.446;13.452;2023-01-30T14:37:51;7.30;99.90
19646;DHT22;9971;52.446;13.452;2023-01-30T14:53:28;7.10;99.90
19646;DHT22;9971;52.446;13.452;2023-01-30T14:58:31;7.10;99.90
19646;DHT22;9971;52.446;13.452;2023-01-30T15:03:33;7.00;99.90
19646;DHT22;9971;52.446;13.452;2023-01-30T15:08:35;6.90;99.90
19646;DHT22;9971;52.446;13.452;2023-01-30T15:19:07;6.90;99.90
19646;DHT22;9971;52.446;13.452;2023-01-30T15:24:20;6.90;99.90
19646;DHT22;9971;52.446;13.452;2023-01-30T15:29:33;6.90;99.90
19646;DHT22;9971;52.446;13.452;2023-01-30T15:34:30;6.90;99.90
19646;DHT22;9971;52.446;13.452;2023-01-30T15:39:32;6.90;99.90
19646;DHT22;9971;52.446;13.452;2023-01-30T15:44:52;7.00;99.90
19646;DHT22;9971;52.446;13.452;2023-01-30T15:50:00;7.00;99.90
19646;DHT22;9971;52.446;13.452;2023-01-30T15:55:02;7.00;99.90
19646;DHT22;9971;52.446;13.452;2023-01-30T16:00:05;7.10;99.90
19646;DHT22;9971;52.446;13.452;2023-01-30T16:05:14;7.10;99.90
19646;DHT22;9971;52.446;13.452;2023-01-30T16:10:15;7.10;99.90
19646;DHT22;9971;52.446;13.452;2023-01-30T16:15:19;7.20;99.90
19646;DHT22;9971;52.446;13.452;2023-01-30T16:20:19;7.20;99.90
19646;DHT22;9971;52.446;13.452;2023-01-30T16:25:24;7.20;99.90
19646;DHT22;9971;52.446;13.452;2023-01-30T16:30:25;7.20;99.90
19646;DHT22;9971;52.446;13.452;2023-01-30T16:35:28;7.20;99.90
19646;DHT22;9971;52.446;13.452;2023-01-30T16:40:30;7.20;99.90
19646;DHT22;9971;52.446;13.452;2023-01-30T16:51:13;7.10;99.90
19646;DHT22;9971;52.446;13.452;2023-01-30T16:56:14;7.10;99.90
19646;DHT22;9971;52.446;13.452;2023-01-30T17:01:15;7.10;99.90
19646;DHT22;9971;52.446;13.452;2023-01-30T17:06:22;7.10;99.90
19646;DHT22;9971;52.446;13.452;2023-01-30T17:11:30;7.10;99.90
19646;DHT22;9971;52.446;13.452;2023-01-30T17:16:31;7.10;99.90
19646;DHT22;9971;52.446;13.452;2023-01-30T17:21:48;7.10;99.90
19646;DHT22;9971;52.446;13.452;2023-01-30T17:26:53;7.10;99.90
19646;DHT22;9971;52.446;13.452;2023-01-30T17:31:54;7.10;99.90
19646;DHT22;9971;52.446;13.452;2023-01-30T17:36:57;7.10;99.90
19646;DHT22;9971;52.446;13.452;2023-01-30T17:41:59;7.20;99.90
19646;DHT22;9971;52.446;13.452;2023-01-30T17:47:01;7.20;99.90
19646;DHT22;9971;52.446;13.452;2023-01-30T17:52:04;7.30;99.90
19646;DHT22;9971;52.446;13.452;2023-01-30T17:57:06;7.30;99.90
19646;DHT22;9971;52.446;13.452;2023-01-30T18:02:09;7.30;99.90
19646;DHT22;9971;52.446;13.452;2023-01-30T18:07:12;7.40;99.90
19646;DHT22;9971;52.446;13.452;2023-01-30T18:12:13;7.40;99.90
19646;DHT22;9971;52.446;13.452;2023-01-30T18:17:16;7.50;99.90
19646;DHT22;9971;52.446;13.452;2023-01-30T18:22:18;7.60;99.90
19646;DHT22;9971;52.446;13.452;2023-01-30T18:27:21;7.60;99.90
19646;DHT22;9971;52.446;13.452;2023-01-30T18:32:23;7.70;99.90
19646;DHT22;9971;52.446;13.452;2023-01-30T18:37:26;7.80;99.90
19646;DHT22;9971;52.446;13.452;2023-01-30T18:42:28;7.80;99.90
19646;DHT22;9971;52.446;13.452;2023-01-30T18:47:31;7.80;99.90
19646;DHT22;9971;52.446;13.452;2023-01-30T18:52:33;7.90;99.90
19646;DHT22;9971;52.446;13.452;2023-01-30T18:57:36;7.90;99.90
19646;DHT22;9971;52.446;13.452;2023-01-30T19:02:39;7.90;99.90
19646;DHT22;9971;52.446;13.452;2023-01-30T19:07:41;7.90;99.90
19646;DHT22;9971;52.446;13.452;2023-01-30T19:12:43;7.90;99.90
19646;DHT22;9971;52.446;13.452;2023-01-30T19:17:51;7.90;99.90
19646;DHT22;9971;52.446;13.452;2023-01-30T19:22:54;8.00;99.90
19646;DHT22;9971;52.446;13.452;2023-01-30T19:27:56;8.00;99.90
19646;DHT22;9971;52.446;13.452;2023-01-30T19:32:58;7.90;99.90
19646;DHT22;9971;52.446;13.452;2023-01-30T19:38:01;7.90;99.90
19646;DHT22;9971;52.446;13.452;2023-01-30T19:43:03;7.80;99.90
19646;DHT22;9971;52.446;13.452;2023-01-30T19:48:06;7.80;99.90
19646;DHT22;9971;52.446;13.452;2023-01-30T19:53:08;7.80;99.90
19646;DHT22;9971;52.446;13.452;2023-01-30T19:58:11;8.20;99.90
19646;DHT22;9971;52.446;13.452;2023-01-30T20:03:13;8.70;99.90
19646;DHT22;9971;52.446;13.452;2023-01-30T20:08:15;9.00;99.90
19646;DHT22;9971;52.446;13.452;2023-01-30T20:13:18;9.30;99.90
19646;DHT22;9971;52.446;13.452;2023-01-30T20:18:20;9.60;99.90
19646;DHT22;9971;52.446;13.452;2023-01-30T20:23:23;9.60;99.90
19646;DHT22;9971;52.446;13.452;2023-01-30T20:28:25;9.70;99.90
19646;DHT22;9971;52.446;13.452;2023-01-30T20:33:29;9.80;99.90
19646;DHT22;9971;52.446;13.452;2023-01-30T20:38:30;9.90;99.90
19646;DHT22;9971;52.446;13.452;2023-01-30T20:43:32;10.00;99.90
19646;DHT22;9971;52.446;13.452;2023-01-30T20:48:34;10.00;99.90
19646;DHT22;9971;52.446;13.452;2023-01-30T20:53:36;10.00;99.90
19646;DHT22;9971;52.446;13.452;2023-01-30T20:58:38;10.00;99.90
19646;DHT22;9971;52.446;13.452;2023-01-30T21:03:41;10.00;99.90
19646;DHT22;9971;52.446;13.452;2023-01-30T21:08:42;10.10;99.90
19646;DHT22;9971;52.446;13.452;2023-01-30T21:13:44;10.10;99.90
19646;DHT22;9971;52.446;13.452;2023-01-30T21:18:47;10.20;99.90
19646;DHT22;9971;52.446;13.452;2023-01-30T21:23:49;10.20;99.90
19646;DHT22;9971;52.446;13.452;2023-01-30T21:28:51;10.40;99.90
19646;DHT22;9971;52.446;13.452;2023-01-30T21:33:56;10.40;99.90
19646;DHT22;9971;52.446;13.452;2023-01-30T21:38:58;10.50;99.90
19646;DHT22;9971;52.446;13.452;2023-01-30T21:44:05;10.50;99.90
19646;DHT22;9971;52.446;13.452;2023-01-30T21:49:08;10.50;99.90
19646;DHT22;9971;52.446;13.452;2023-01-30T21:54:10;10.60;99.90
19646;DHT22;9971;52.446;13.452;2023-01-30T21:59:12;10.60;99.90
19646;DHT22;9971;52.446;13.452;2023-01-30T22:04:14;10.50;99.90
19646;DHT22;9971;52.446;13.452;2023-01-30T22:09:17;10.50;99.90
19646;DHT22;9971;52.446;13.452;2023-01-30T22:14:19;10.50;99.90
19646;DHT22;9971;52.446;13.452;2023-01-30T22:19:22;10.50;99.90
19646;DHT22;9971;52.446;13.452;2023-01-30T22:24:24;10.40;99.90
19646;DHT22;9971;52.446;13.452;2023-01-30T22:29:27;10.40;99.90
19646;DHT22;9971;52.446;13.452;2023-01-30T22:34:29;10.40;99.90
19646;DHT22;9971;52.446;13.452;2023-01-30T22:39:32;10.50;99.90
19646;DHT22;9971;52.446;13.452;2023-01-30T22:44:34;10.50;99.90
19646;DHT22;9971;52.446;13.452;2023-01-30T22:49:36;10.50;99.90
19646;DHT22;9971;52.446;13.452;2023-01-30T22:54:39;10.50;99.90
19646;DHT22;9971;52.446;13.452;2023-01-30T22:59:41;10.40;99.90
19646;DHT22;9971;52.446;13.452;2023-01-30T23:04:44;10.50;99.90
19646;DHT22;9971;52.446;13.452;2023-01-30T23:09:46;10.50;99.90
19646;DHT22;9971;52.446;13.452;2023-01-30T23:14:49;10.50;99.90
19646;DHT22;9971;52.446;13.452;2023-01-30T23:19:51;10.50;99.90
19646;DHT22;9971;52.446;13.452;2023-01-30T23:24:53;10.50;99.90
19646;DHT22;9971;52.446;13.452;2023-01-30T23:29:56;10.50;99.90
19646;DHT22;9971;52.446;13.452;2023-01-30T23:34:58;10.50;99.90
19646;DHT22;9971;52.446;13.452;2023-01-30T23:40:01;10.50;99.90
19646;DHT22;9971;52.446;13.452;2023-01-30T23:45:04;10.50;99.90
19646;DHT22;9971;52.446;13.452;2023-01-30T23:50:06;10.40;99.90
19646;DHT22;9971;52.446;13.452;2023-01-30T23:55:09;10.30;99.90
